LSZR

St Gallen Altenrhein Airport

Airport
ICAO code
LSZR
IATA Code
ACH
Summary
ICAO Region
EUR
ICAO Territory
Location

Altenrhein, Sankt Gallen

Serving
Rorschach
Elevation
1306 ft
Coordinates
47° 29' 6" N , 9° 33' 39" E
KCC
Metar
LSZR 142220Z AUTO VRB02KT CAVOK 14/13 Q1010

A small airport in Altenrhein in the Canton of St. Gallen, Switzerland near Lake Constance.

Climatology

Humid “subtropical” climate (Köppen climate classification Cfa)

Runways

Designator Length Width Surface Rops
10/28 0 0 UNK Yes/Yes
10L/28R 600 23 GRS No/No
10R/28L 1500 30 ASPHALT No/No

SKYbrary Partners:

Safety knowledge contributed by: